sensor_id;sensor_type;location;lat;lon;timestamp;P1;durP1;ratioP1;P2;durP2;ratioP2
64816;SDS011;69411;45.656;11.740;2024-01-30T00:00:21;76.82;;;36.80;;
64816;SDS011;69411;45.656;11.740;2024-01-30T00:02:47;71.30;;;37.38;;
64816;SDS011;69411;45.656;11.740;2024-01-30T00:05:13;71.10;;;34.42;;
64816;SDS011;69411;45.656;11.740;2024-01-30T00:07:39;78.57;;;37.95;;
64816;SDS011;69411;45.656;11.740;2024-01-30T00:10:05;73.32;;;36.97;;
64816;SDS011;69411;45.656;11.740;2024-01-30T00:12:31;65.00;;;33.45;;
64816;SDS011;69411;45.656;11.740;2024-01-30T00:14:57;81.35;;;37.88;;
64816;SDS011;69411;45.656;11.740;2024-01-30T00:17:23;80.85;;;39.05;;
64816;SDS011;69411;45.656;11.740;2024-01-30T00:19:50;82.80;;;38.03;;
64816;SDS011;69411;45.656;11.740;2024-01-30T00:22:16;81.63;;;38.83;;
64816;SDS011;69411;45.656;11.740;2024-01-30T00:24:42;83.50;;;40.45;;
64816;SDS011;69411;45.656;11.740;2024-01-30T00:27:08;76.65;;;38.78;;
64816;SDS011;69411;45.656;11.740;2024-01-30T00:29:34;85.72;;;41.53;;
64816;SDS011;69411;45.656;11.740;2024-01-30T00:32:00;73.40;;;37.05;;
64816;SDS011;69411;45.656;11.740;2024-01-30T00:34:25;83.47;;;37.70;;
64816;SDS011;69411;45.656;11.740;2024-01-30T00:36:51;84.53;;;39.65;;
64816;SDS011;69411;45.656;11.740;2024-01-30T00:39:17;87.80;;;39.17;;
64816;SDS011;69411;45.656;11.740;2024-01-30T00:41:44;79.78;;;37.53;;
64816;SDS011;69411;45.656;11.740;2024-01-30T00:44:10;73.68;;;35.65;;
64816;SDS011;69411;45.656;11.740;2024-01-30T00:46:36;71.35;;;35.33;;
64816;SDS011;69411;45.656;11.740;2024-01-30T00:49:02;75.68;;;35.85;;
64816;SDS011;69411;45.656;11.740;2024-01-30T00:51:28;79.32;;;40.13;;
64816;SDS011;69411;45.656;11.740;2024-01-30T00:53:55;75.72;;;37.97;;
64816;SDS011;69411;45.656;11.740;2024-01-30T00:56:20;72.25;;;38.38;;
64816;SDS011;69411;45.656;11.740;2024-01-30T00:58:46;81.85;;;37.88;;
64816;SDS011;69411;45.656;11.740;2024-01-30T01:01:12;75.82;;;37.78;;
64816;SDS011;69411;45.656;11.740;2024-01-30T01:03:40;76.18;;;37.13;;
64816;SDS011;69411;45.656;11.740;2024-01-30T01:06:08;77.60;;;35.42;;
64816;SDS011;69411;45.656;11.740;2024-01-30T01:08:34;76.95;;;35.50;;
64816;SDS011;69411;45.656;11.740;2024-01-30T01:11:01;80.07;;;38.15;;
64816;SDS011;69411;45.656;11.740;2024-01-30T01:13:28;79.38;;;38.00;;
64816;SDS011;69411;45.656;11.740;2024-01-30T01:15:54;75.93;;;37.22;;
64816;SDS011;69411;45.656;11.740;2024-01-30T01:18:20;77.85;;;37.20;;
64816;SDS011;69411;45.656;11.740;2024-01-30T01:20:46;69.75;;;35.97;;
64816;SDS011;69411;45.656;11.740;2024-01-30T01:23:12;77.97;;;36.88;;
64816;SDS011;69411;45.656;11.740;2024-01-30T01:25:38;75.30;;;38.10;;
64816;SDS011;69411;45.656;11.740;2024-01-30T01:28:04;83.72;;;37.70;;
64816;SDS011;69411;45.656;11.740;2024-01-30T01:30:30;74.65;;;36.20;;
64816;SDS011;69411;45.656;11.740;2024-01-30T01:32:56;80.85;;;38.97;;
64816;SDS011;69411;45.656;11.740;2024-01-30T01:35:25;80.05;;;39.85;;
64816;SDS011;69411;45.656;11.740;2024-01-30T01:37:52;81.40;;;40.13;;
64816;SDS011;69411;45.656;11.740;2024-01-30T01:40:24;71.95;;;36.67;;
64816;SDS011;69411;45.656;11.740;2024-01-30T01:42:51;73.50;;;36.65;;
64816;SDS011;69411;45.656;11.740;2024-01-30T01:45:18;72.22;;;33.28;;
64816;SDS011;69411;45.656;11.740;2024-01-30T01:47:46;77.10;;;36.92;;
64816;SDS011;69411;45.656;11.740;2024-01-30T01:50:15;77.75;;;37.63;;
64816;SDS011;69411;45.656;11.740;2024-01-30T01:52:43;74.82;;;35.20;;
64816;SDS011;69411;45.656;11.740;2024-01-30T01:55:12;79.10;;;38.20;;
64816;SDS011;69411;45.656;11.740;2024-01-30T01:57:40;74.20;;;35.58;;
64816;SDS011;69411;45.656;11.740;2024-01-30T02:00:07;79.38;;;38.00;;
64816;SDS011;69411;45.656;11.740;2024-01-30T02:02:35;83.13;;;38.92;;
64816;SDS011;69411;45.656;11.740;2024-01-30T02:05:02;78.78;;;41.58;;
64816;SDS011;69411;45.656;11.740;2024-01-30T02:07:29;78.22;;;36.20;;
64816;SDS011;69411;45.656;11.740;2024-01-30T02:09:55;76.07;;;36.58;;
64816;SDS011;69411;45.656;11.740;2024-01-30T02:12:21;66.15;;;33.92;;
64816;SDS011;69411;45.656;11.740;2024-01-30T02:14:47;70.22;;;36.78;;
64816;SDS011;69411;45.656;11.740;2024-01-30T02:17:15;62.20;;;31.90;;
64816;SDS011;69411;45.656;11.740;2024-01-30T02:19:41;64.32;;;31.27;;
64816;SDS011;69411;45.656;11.740;2024-01-30T02:22:08;66.57;;;34.38;;
64816;SDS011;69411;45.656;11.740;2024-01-30T02:24:34;57.92;;;30.25;;
64816;SDS011;69411;45.656;11.740;2024-01-30T02:27:00;59.92;;;30.90;;
64816;SDS011;69411;45.656;11.740;2024-01-30T02:29:26;70.70;;;32.88;;
64816;SDS011;69411;45.656;11.740;2024-01-30T02:31:52;59.10;;;29.60;;
64816;SDS011;69411;45.656;11.740;2024-01-30T02:34:18;60.28;;;30.75;;
64816;SDS011;69411;45.656;11.740;2024-01-30T02:36:44;65.28;;;32.88;;
64816;SDS011;69411;45.656;11.740;2024-01-30T02:39:11;70.55;;;34.10;;
64816;SDS011;69411;45.656;11.740;2024-01-30T02:41:37;66.78;;;34.67;;
64816;SDS011;69411;45.656;11.740;2024-01-30T02:44:03;66.68;;;33.38;;
64816;SDS011;69411;45.656;11.740;2024-01-30T02:46:29;72.53;;;35.85;;
64816;SDS011;69411;45.656;11.740;2024-01-30T02:48:55;64.85;;;32.20;;
64816;SDS011;69411;45.656;11.740;2024-01-30T02:51:21;72.57;;;35.97;;
64816;SDS011;69411;45.656;11.740;2024-01-30T02:53:47;59.55;;;31.80;;
64816;SDS011;69411;45.656;11.740;2024-01-30T02:56:13;61.53;;;32.05;;
64816;SDS011;69411;45.656;11.740;2024-01-30T02:58:40;62.45;;;32.22;;
64816;SDS011;69411;45.656;11.740;2024-01-30T03:01:06;66.35;;;34.13;;
64816;SDS011;69411;45.656;11.740;2024-01-30T03:03:32;64.15;;;31.83;;
64816;SDS011;69411;45.656;11.740;2024-01-30T03:06:00;60.83;;;32.33;;
64816;SDS011;69411;45.656;11.740;2024-01-30T03:08:27;62.22;;;30.70;;
64816;SDS011;69411;45.656;11.740;2024-01-30T03:10:53;65.57;;;32.55;;
64816;SDS011;69411;45.656;11.740;2024-01-30T03:13:19;64.93;;;32.78;;
64816;SDS011;69411;45.656;11.740;2024-01-30T03:15:45;66.70;;;31.98;;
64816;SDS011;69411;45.656;11.740;2024-01-30T03:18:10;66.25;;;33.22;;
64816;SDS011;69411;45.656;11.740;2024-01-30T03:20:36;66.00;;;34.08;;
64816;SDS011;69411;45.656;11.740;2024-01-30T03:23:03;74.63;;;35.30;;
64816;SDS011;69411;45.656;11.740;2024-01-30T03:25:29;67.53;;;33.92;;
64816;SDS011;69411;45.656;11.740;2024-01-30T03:27:54;66.70;;;32.13;;
64816;SDS011;69411;45.656;11.740;2024-01-30T03:30:20;65.68;;;32.35;;
64816;SDS011;69411;45.656;11.740;2024-01-30T03:32:46;67.40;;;33.97;;
64816;SDS011;69411;45.656;11.740;2024-01-30T03:35:12;68.63;;;33.67;;
64816;SDS011;69411;45.656;11.740;2024-01-30T03:37:38;69.47;;;34.00;;
64816;SDS011;69411;45.656;11.740;2024-01-30T03:40:04;60.95;;;32.72;;
64816;SDS011;69411;45.656;11.740;2024-01-30T03:42:30;68.38;;;33.33;;
64816;SDS011;69411;45.656;11.740;2024-01-30T03:44:57;70.25;;;34.05;;
64816;SDS011;69411;45.656;11.740;2024-01-30T03:47:23;70.30;;;35.95;;
64816;SDS011;69411;45.656;11.740;2024-01-30T03:49:49;69.85;;;34.38;;
64816;SDS011;69411;45.656;11.740;2024-01-30T03:52:14;67.07;;;33.00;;
64816;SDS011;69411;45.656;11.740;2024-01-30T03:54:40;76.78;;;35.13;;
64816;SDS011;69411;45.656;11.740;2024-01-30T03:57:06;68.13;;;36.30;;
64816;SDS011;69411;45.656;11.740;2024-01-30T03:59:32;65.70;;;34.65;;
64816;SDS011;69411;45.656;11.740;2024-01-30T04:01:58;72.22;;;35.75;;
64816;SDS011;69411;45.656;11.740;2024-01-30T04:04:24;68.45;;;33.50;;
64816;SDS011;69411;45.656;11.740;2024-01-30T04:06:50;65.25;;;33.38;;
64816;SDS011;69411;45.656;11.740;2024-01-30T04:09:16;75.97;;;36.58;;
64816;SDS011;69411;45.656;11.740;2024-01-30T04:11:42;67.35;;;33.58;;
64816;SDS011;69411;45.656;11.740;2024-01-30T04:14:09;77.47;;;38.58;;
64816;SDS011;69411;45.656;11.740;2024-01-30T04:16:35;78.35;;;41.03;;
64816;SDS011;69411;45.656;11.740;2024-01-30T04:19:01;65.85;;;33.33;;
64816;SDS011;69411;45.656;11.740;2024-01-30T04:21:27;69.68;;;33.75;;
64816;SDS011;69411;45.656;11.740;2024-01-30T04:23:53;68.18;;;33.90;;
64816;SDS011;69411;45.656;11.740;2024-01-30T04:26:19;80.20;;;37.95;;
64816;SDS011;69411;45.656;11.740;2024-01-30T04:28:45;73.90;;;36.08;;
64816;SDS011;69411;45.656;11.740;2024-01-30T04:31:11;66.78;;;32.15;;
64816;SDS011;69411;45.656;11.740;2024-01-30T04:33:37;60.53;;;31.73;;
64816;SDS011;69411;45.656;11.740;2024-01-30T04:36:04;71.85;;;34.88;;
64816;SDS011;69411;45.656;11.740;2024-01-30T04:38:34;72.95;;;34.42;;
64816;SDS011;69411;45.656;11.740;2024-01-30T04:41:00;63.97;;;32.35;;
64816;SDS011;69411;45.656;11.740;2024-01-30T04:43:26;64.65;;;32.05;;
64816;SDS011;69411;45.656;11.740;2024-01-30T04:45:52;70.63;;;32.67;;
64816;SDS011;69411;45.656;11.740;2024-01-30T04:48:18;69.05;;;31.63;;
64816;SDS011;69411;45.656;11.740;2024-01-30T04:50:44;65.55;;;32.58;;
64816;SDS011;69411;45.656;11.740;2024-01-30T04:53:10;65.55;;;30.88;;
64816;SDS011;69411;45.656;11.740;2024-01-30T04:55:36;68.10;;;31.63;;
64816;SDS011;69411;45.656;11.740;2024-01-30T04:58:02;69.80;;;31.42;;
64816;SDS011;69411;45.656;11.740;2024-01-30T05:00:28;67.68;;;31.52;;
64816;SDS011;69411;45.656;11.740;2024-01-30T05:02:55;74.10;;;36.90;;
64816;SDS011;69411;45.656;11.740;2024-01-30T05:05:21;67.70;;;33.40;;
64816;SDS011;69411;45.656;11.740;2024-01-30T05:07:47;63.70;;;31.48;;
64816;SDS011;69411;45.656;11.740;2024-01-30T05:10:13;64.82;;;33.40;;
64816;SDS011;69411;45.656;11.740;2024-01-30T05:12:39;71.53;;;34.33;;
64816;SDS011;69411;45.656;11.740;2024-01-30T05:15:05;78.22;;;34.85;;
64816;SDS011;69411;45.656;11.740;2024-01-30T05:17:31;59.33;;;28.33;;
64816;SDS011;69411;45.656;11.740;2024-01-30T05:19:58;62.40;;;31.77;;
64816;SDS011;69411;45.656;11.740;2024-01-30T05:22:24;68.00;;;33.05;;
64816;SDS011;69411;45.656;11.740;2024-01-30T05:24:50;59.88;;;31.48;;
64816;SDS011;69411;45.656;11.740;2024-01-30T05:27:16;66.03;;;32.15;;
64816;SDS011;69411;45.656;11.740;2024-01-30T05:29:42;64.75;;;30.50;;
64816;SDS011;69411;45.656;11.740;2024-01-30T05:32:08;58.05;;;30.30;;
64816;SDS011;69411;45.656;11.740;2024-01-30T05:34:35;53.92;;;27.77;;
64816;SDS011;69411;45.656;11.740;2024-01-30T05:37:01;63.30;;;32.20;;
64816;SDS011;69411;45.656;11.740;2024-01-30T05:39:27;67.40;;;34.90;;
64816;SDS011;69411;45.656;11.740;2024-01-30T05:41:52;63.08;;;33.10;;
64816;SDS011;69411;45.656;11.740;2024-01-30T05:44:18;63.15;;;32.35;;
64816;SDS011;69411;45.656;11.740;2024-01-30T05:46:44;64.20;;;29.27;;
64816;SDS011;69411;45.656;11.740;2024-01-30T05:49:10;57.22;;;27.27;;
64816;SDS011;69411;45.656;11.740;2024-01-30T05:51:36;62.53;;;32.03;;
64816;SDS011;69411;45.656;11.740;2024-01-30T05:54:02;61.28;;;32.58;;
64816;SDS011;69411;45.656;11.740;2024-01-30T05:56:29;54.10;;;27.33;;
64816;SDS011;69411;45.656;11.740;2024-01-30T05:58:55;56.33;;;28.73;;
64816;SDS011;69411;45.656;11.740;2024-01-30T06:01:21;67.43;;;30.88;;
64816;SDS011;69411;45.656;11.740;2024-01-30T06:03:47;64.90;;;33.47;;
64816;SDS011;69411;45.656;11.740;2024-01-30T06:06:13;67.72;;;30.88;;
64816;SDS011;69411;45.656;11.740;2024-01-30T06:08:39;67.93;;;34.30;;
64816;SDS011;69411;45.656;11.740;2024-01-30T06:11:05;66.85;;;33.20;;
64816;SDS011;69411;45.656;11.740;2024-01-30T06:13:31;56.47;;;29.23;;
64816;SDS011;69411;45.656;11.740;2024-01-30T06:15:58;63.53;;;32.05;;
64816;SDS011;69411;45.656;11.740;2024-01-30T06:18:24;65.38;;;33.90;;
64816;SDS011;69411;45.656;11.740;2024-01-30T06:20:52;54.90;;;27.58;;
64816;SDS011;69411;45.656;11.740;2024-01-30T06:23:17;72.38;;;34.75;;
64816;SDS011;69411;45.656;11.740;2024-01-30T06:25:43;66.00;;;34.78;;
64816;SDS011;69411;45.656;11.740;2024-01-30T06:28:09;79.05;;;34.35;;
64816;SDS011;69411;45.656;11.740;2024-01-30T06:30:35;77.25;;;35.88;;
64816;SDS011;69411;45.656;11.740;2024-01-30T06:33:02;81.35;;;34.63;;
64816;SDS011;69411;45.656;11.740;2024-01-30T06:35:28;73.53;;;35.70;;
64816;SDS011;69411;45.656;11.740;2024-01-30T06:37:54;65.25;;;35.38;;
64816;SDS011;69411;45.656;11.740;2024-01-30T06:40:20;73.55;;;35.05;;
64816;SDS011;69411;45.656;11.740;2024-01-30T06:42:46;69.50;;;36.60;;
64816;SDS011;69411;45.656;11.740;2024-01-30T06:45:12;67.65;;;33.85;;
64816;SDS011;69411;45.656;11.740;2024-01-30T06:47:38;66.55;;;34.60;;
64816;SDS011;69411;45.656;11.740;2024-01-30T06:50:04;72.07;;;37.60;;
64816;SDS011;69411;45.656;11.740;2024-01-30T06:52:30;65.25;;;34.05;;
64816;SDS011;69411;45.656;11.740;2024-01-30T06:54:56;64.03;;;34.20;;
64816;SDS011;69411;45.656;11.740;2024-01-30T06:57:22;75.50;;;38.38;;
64816;SDS011;69411;45.656;11.740;2024-01-30T06:59:48;69.97;;;34.40;;
64816;SDS011;69411;45.656;11.740;2024-01-30T07:02:14;71.55;;;35.25;;
64816;SDS011;69411;45.656;11.740;2024-01-30T07:04:40;69.80;;;36.03;;
64816;SDS011;69411;45.656;11.740;2024-01-30T07:07:07;74.10;;;38.70;;
64816;SDS011;69411;45.656;11.740;2024-01-30T07:09:38;73.53;;;36.20;;
64816;SDS011;69411;45.656;11.740;2024-01-30T07:12:04;69.45;;;36.80;;
64816;SDS011;69411;45.656;11.740;2024-01-30T07:14:31;69.32;;;35.60;;
64816;SDS011;69411;45.656;11.740;2024-01-30T07:16:57;71.43;;;36.78;;
64816;SDS011;69411;45.656;11.740;2024-01-30T07:19:23;75.85;;;36.78;;
64816;SDS011;69411;45.656;11.740;2024-01-30T07:21:49;68.65;;;36.65;;
64816;SDS011;69411;45.656;11.740;2024-01-30T07:24:15;64.18;;;32.55;;
64816;SDS011;69411;45.656;11.740;2024-01-30T07:26:40;69.47;;;35.78;;
64816;SDS011;69411;45.656;11.740;2024-01-30T07:29:06;72.40;;;36.10;;
64816;SDS011;69411;45.656;11.740;2024-01-30T07:31:32;73.68;;;36.45;;
64816;SDS011;69411;45.656;11.740;2024-01-30T07:33:58;70.22;;;34.05;;
64816;SDS011;69411;45.656;11.740;2024-01-30T07:36:24;74.18;;;36.25;;
64816;SDS011;69411;45.656;11.740;2024-01-30T07:38:51;66.63;;;35.80;;
64816;SDS011;69411;45.656;11.740;2024-01-30T07:41:19;68.38;;;36.55;;
64816;SDS011;69411;45.656;11.740;2024-01-30T07:43:45;65.90;;;35.72;;
64816;SDS011;69411;45.656;11.740;2024-01-30T07:46:11;64.85;;;34.72;;
64816;SDS011;69411;45.656;11.740;2024-01-30T07:48:37;63.10;;;32.53;;
64816;SDS011;69411;45.656;11.740;2024-01-30T07:51:03;62.75;;;32.47;;
64816;SDS011;69411;45.656;11.740;2024-01-30T07:53:29;53.72;;;29.67;;
64816;SDS011;69411;45.656;11.740;2024-01-30T07:55:55;57.30;;;30.15;;
64816;SDS011;69411;45.656;11.740;2024-01-30T07:58:21;62.83;;;33.28;;
64816;SDS011;69411;45.656;11.740;2024-01-30T08:00:48;56.67;;;30.58;;
64816;SDS011;69411;45.656;11.740;2024-01-30T08:03:17;63.72;;;32.42;;
64816;SDS011;69411;45.656;11.740;2024-01-30T08:05:43;66.70;;;35.30;;
64816;SDS011;69411;45.656;11.740;2024-01-30T08:08:09;62.55;;;31.67;;
64816;SDS011;69411;45.656;11.740;2024-01-30T08:10:35;52.15;;;30.13;;
64816;SDS011;69411;45.656;11.740;2024-01-30T08:13:01;57.22;;;30.20;;
64816;SDS011;69411;45.656;11.740;2024-01-30T08:15:27;60.40;;;31.40;;
64816;SDS011;69411;45.656;11.740;2024-01-30T08:17:53;60.17;;;33.65;;
64816;SDS011;69411;45.656;11.740;2024-01-30T08:20:23;62.13;;;32.58;;
64816;SDS011;69411;45.656;11.740;2024-01-30T08:22:50;75.22;;;39.60;;
64816;SDS011;69411;45.656;11.740;2024-01-30T08:25:16;70.65;;;35.40;;
64816;SDS011;69411;45.656;11.740;2024-01-30T08:27:42;62.63;;;32.75;;
64816;SDS011;69411;45.656;11.740;2024-01-30T08:30:08;66.70;;;35.05;;
64816;SDS011;69411;45.656;11.740;2024-01-30T08:32:34;70.68;;;37.42;;
64816;SDS011;69411;45.656;11.740;2024-01-30T08:35:00;58.78;;;31.50;;
64816;SDS011;69411;45.656;11.740;2024-01-30T08:37:29;57.38;;;31.50;;
64816;SDS011;69411;45.656;11.740;2024-01-30T08:39:55;57.72;;;31.17;;
64816;SDS011;69411;45.656;11.740;2024-01-30T08:42:22;70.07;;;36.70;;
64816;SDS011;69411;45.656;11.740;2024-01-30T08:44:48;63.45;;;32.80;;
64816;SDS011;69411;45.656;11.740;2024-01-30T08:47:16;54.22;;;31.30;;
64816;SDS011;69411;45.656;11.740;2024-01-30T08:49:43;54.00;;;28.58;;
64816;SDS011;69411;45.656;11.740;2024-01-30T08:52:12;51.85;;;29.40;;
64816;SDS011;69411;45.656;11.740;2024-01-30T08:54:39;51.95;;;28.38;;
64816;SDS011;69411;45.656;11.740;2024-01-30T08:57:05;51.20;;;27.77;;
64816;SDS011;69411;45.656;11.740;2024-01-30T08:59:31;54.15;;;29.08;;
64816;SDS011;69411;45.656;11.740;2024-01-30T09:01:57;46.00;;;26.40;;
64816;SDS011;69411;45.656;11.740;2024-01-30T09:04:24;51.92;;;28.90;;
64816;SDS011;69411;45.656;11.740;2024-01-30T09:06:51;47.90;;;25.52;;
64816;SDS011;69411;45.656;11.740;2024-01-30T09:09:17;45.67;;;25.95;;
64816;SDS011;69411;45.656;11.740;2024-01-30T09:11:43;45.88;;;24.48;;
64816;SDS011;69411;45.656;11.740;2024-01-30T09:14:09;41.78;;;24.08;;
64816;SDS011;69411;45.656;11.740;2024-01-30T09:16:35;41.83;;;24.48;;
64816;SDS011;69411;45.656;11.740;2024-01-30T09:19:01;46.25;;;23.58;;
64816;SDS011;69411;45.656;11.740;2024-01-30T09:21:27;40.35;;;22.08;;
64816;SDS011;69411;45.656;11.740;2024-01-30T09:23:54;38.40;;;21.63;;
64816;SDS011;69411;45.656;11.740;2024-01-30T09:26:26;42.95;;;22.65;;
64816;SDS011;69411;45.656;11.740;2024-01-30T09:28:52;39.08;;;21.90;;
64816;SDS011;69411;45.656;11.740;2024-01-30T09:31:18;37.55;;;19.88;;
64816;SDS011;69411;45.656;11.740;2024-01-30T09:33:44;35.83;;;20.58;;
64816;SDS011;69411;45.656;11.740;2024-01-30T09:36:12;37.20;;;21.67;;
64816;SDS011;69411;45.656;11.740;2024-01-30T09:38:40;38.63;;;20.60;;
64816;SDS011;69411;45.656;11.740;2024-01-30T09:41:08;35.53;;;21.75;;
64816;SDS011;69411;45.656;11.740;2024-01-30T09:43:36;34.95;;;20.52;;
64816;SDS011;69411;45.656;11.740;2024-01-30T09:46:05;33.83;;;20.38;;
64816;SDS011;69411;45.656;11.740;2024-01-30T09:48:33;35.63;;;20.27;;
64816;SDS011;69411;45.656;11.740;2024-01-30T09:51:00;34.92;;;18.83;;
64816;SDS011;69411;45.656;11.740;2024-01-30T09:53:27;32.03;;;19.73;;
64816;SDS011;69411;45.656;11.740;2024-01-30T09:55:53;33.92;;;19.30;;
64816;SDS011;69411;45.656;11.740;2024-01-30T09:58:19;31.80;;;19.23;;
64816;SDS011;69411;45.656;11.740;2024-01-30T10:00:45;34.17;;;20.17;;
64816;SDS011;69411;45.656;11.740;2024-01-30T10:03:12;34.35;;;20.02;;
64816;SDS011;69411;45.656;11.740;2024-01-30T10:05:40;34.65;;;20.33;;
64816;SDS011;69411;45.656;11.740;2024-01-30T10:08:06;35.80;;;19.35;;
64816;SDS011;69411;45.656;11.740;2024-01-30T10:10:35;32.88;;;20.48;;
64816;SDS011;69411;45.656;11.740;2024-01-30T10:13:01;34.00;;;20.35;;
64816;SDS011;69411;45.656;11.740;2024-01-30T10:15:28;38.78;;;21.88;;
64816;SDS011;69411;45.656;11.740;2024-01-30T10:17:54;38.25;;;22.42;;
64816;SDS011;69411;45.656;11.740;2024-01-30T10:20:20;39.75;;;23.05;;
64816;SDS011;69411;45.656;11.740;2024-01-30T10:22:47;33.63;;;21.73;;
64816;SDS011;69411;45.656;11.740;2024-01-30T10:25:14;36.85;;;22.98;;
64816;SDS011;69411;45.656;11.740;2024-01-30T10:27:41;36.85;;;22.38;;
64816;SDS011;69411;45.656;11.740;2024-01-30T10:30:08;33.03;;;21.25;;
64816;SDS011;69411;45.656;11.740;2024-01-30T10:32:34;35.95;;;20.60;;
64816;SDS011;69411;45.656;11.740;2024-01-30T10:35:01;34.53;;;20.13;;
64816;SDS011;69411;45.656;11.740;2024-01-30T10:37:27;32.20;;;18.50;;
64816;SDS011;69411;45.656;11.740;2024-01-30T10:39:56;33.53;;;18.75;;
64816;SDS011;69411;45.656;11.740;2024-01-30T10:42:30;33.03;;;20.13;;
64816;SDS011;69411;45.656;11.740;2024-01-30T10:47:56;31.50;;;19.45;;
64816;SDS011;69411;45.656;11.740;2024-01-30T10:50:25;35.78;;;20.75;;
64816;SDS011;69411;45.656;11.740;2024-01-30T10:52:52;30.95;;;18.88;;
64816;SDS011;69411;45.656;11.740;2024-01-30T10:55:20;29.75;;;17.25;;
64816;SDS011;69411;45.656;11.740;2024-01-30T10:57:49;31.90;;;15.73;;
64816;SDS011;69411;45.656;11.740;2024-01-30T11:00:15;27.05;;;16.67;;
64816;SDS011;69411;45.656;11.740;2024-01-30T11:02:45;28.13;;;17.13;;
64816;SDS011;69411;45.656;11.740;2024-01-30T11:05:12;28.65;;;16.00;;
64816;SDS011;69411;45.656;11.740;2024-01-30T11:07:40;29.85;;;15.43;;
64816;SDS011;69411;45.656;11.740;2024-01-30T11:10:06;28.92;;;16.58;;
64816;SDS011;69411;45.656;11.740;2024-01-30T11:12:37;33.65;;;18.95;;
64816;SDS011;69411;45.656;11.740;2024-01-30T11:15:06;28.88;;;15.00;;
64816;SDS011;69411;45.656;11.740;2024-01-30T11:17:43;32.40;;;15.63;;
64816;SDS011;69411;45.656;11.740;2024-01-30T11:22:53;30.50;;;18.38;;
64816;SDS011;69411;45.656;11.740;2024-01-30T11:25:21;32.50;;;19.00;;
64816;SDS011;69411;45.656;11.740;2024-01-30T11:27:55;34.20;;;19.35;;
64816;SDS011;69411;45.656;11.740;2024-01-30T11:30:21;37.13;;;20.30;;
64816;SDS011;69411;45.656;11.740;2024-01-30T11:35:42;28.23;;;15.43;;
64816;SDS011;69411;45.656;11.740;2024-01-30T11:38:10;29.75;;;18.25;;
64816;SDS011;69411;45.656;11.740;2024-01-30T11:40:39;30.67;;;16.17;;
64816;SDS011;69411;45.656;11.740;2024-01-30T11:43:06;30.77;;;16.25;;
64816;SDS011;69411;45.656;11.740;2024-01-30T11:45:33;28.52;;;16.67;;
64816;SDS011;69411;45.656;11.740;2024-01-30T11:48:00;33.58;;;17.70;;
64816;SDS011;69411;45.656;11.740;2024-01-30T11:50:37;32.40;;;17.15;;
64816;SDS011;69411;45.656;11.740;2024-01-30T11:53:04;32.85;;;17.25;;
64816;SDS011;69411;45.656;11.740;2024-01-30T11:55:31;31.08;;;16.85;;
64816;SDS011;69411;45.656;11.740;2024-01-30T11:57:58;33.22;;;16.42;;
64816;SDS011;69411;45.656;11.740;2024-01-30T12:00:24;30.58;;;16.15;;
64816;SDS011;69411;45.656;11.740;2024-01-30T12:02:51;29.27;;;16.75;;
64816;SDS011;69411;45.656;11.740;2024-01-30T12:05:21;30.65;;;17.25;;
64816;SDS011;69411;45.656;11.740;2024-01-30T12:07:48;35.78;;;19.20;;
64816;SDS011;69411;45.656;11.740;2024-01-30T12:10:14;30.90;;;17.77;;
64816;SDS011;69411;45.656;11.740;2024-01-30T12:12:41;32.83;;;19.23;;
64816;SDS011;69411;45.656;11.740;2024-01-30T12:15:09;32.17;;;16.77;;
64816;SDS011;69411;45.656;11.740;2024-01-30T12:17:36;34.00;;;19.40;;
64816;SDS011;69411;45.656;11.740;2024-01-30T12:20:03;31.75;;;19.45;;
64816;SDS011;69411;45.656;11.740;2024-01-30T12:22:38;34.47;;;18.75;;
64816;SDS011;69411;45.656;11.740;2024-01-30T12:27:46;30.80;;;18.90;;
64816;SDS011;69411;45.656;11.740;2024-01-30T12:30:18;34.30;;;19.05;;
64816;SDS011;69411;45.656;11.740;2024-01-30T12:32:45;34.90;;;19.02;;
64816;SDS011;69411;45.656;11.740;2024-01-30T12:35:15;33.42;;;19.85;;
64816;SDS011;69411;45.656;11.740;2024-01-30T12:37:45;33.13;;;18.92;;
64816;SDS011;69411;45.656;11.740;2024-01-30T12:40:15;32.33;;;18.95;;
64816;SDS011;69411;45.656;11.740;2024-01-30T12:42:42;36.90;;;18.23;;
64816;SDS011;69411;45.656;11.740;2024-01-30T12:45:11;33.72;;;19.05;;
64816;SDS011;69411;45.656;11.740;2024-01-30T12:47:39;35.20;;;19.05;;
64816;SDS011;69411;45.656;11.740;2024-01-30T12:50:05;37.90;;;20.17;;
64816;SDS011;69411;45.656;11.740;2024-01-30T12:52:31;33.38;;;18.95;;
64816;SDS011;69411;45.656;11.740;2024-01-30T12:54:58;36.03;;;20.20;;
64816;SDS011;69411;45.656;11.740;2024-01-30T12:57:24;35.15;;;20.35;;
64816;SDS011;69411;45.656;11.740;2024-01-30T12:59:49;33.00;;;19.50;;
64816;SDS011;69411;45.656;11.740;2024-01-30T13:02:16;33.25;;;18.98;;
64816;SDS011;69411;45.656;11.740;2024-01-30T13:04:42;40.17;;;21.10;;
64816;SDS011;69411;45.656;11.740;2024-01-30T13:07:08;33.65;;;18.00;;
64816;SDS011;69411;45.656;11.740;2024-01-30T13:09:34;34.58;;;19.08;;
64816;SDS011;69411;45.656;11.740;2024-01-30T13:12:00;36.03;;;18.65;;
64816;SDS011;69411;45.656;11.740;2024-01-30T13:14:26;37.50;;;19.65;;
64816;SDS011;69411;45.656;11.740;2024-01-30T13:16:52;39.40;;;20.17;;
64816;SDS011;69411;45.656;11.740;2024-01-30T13:19:18;32.78;;;17.17;;
64816;SDS011;69411;45.656;11.740;2024-01-30T13:21:44;38.58;;;18.63;;
64816;SDS011;69411;45.656;11.740;2024-01-30T13:24:11;38.03;;;18.52;;
64816;SDS011;69411;45.656;11.740;2024-01-30T13:26:37;37.05;;;18.55;;
64816;SDS011;69411;45.656;11.740;2024-01-30T13:29:04;34.67;;;17.17;;
64816;SDS011;69411;45.656;11.740;2024-01-30T13:31:30;33.15;;;17.63;;
64816;SDS011;69411;45.656;11.740;2024-01-30T13:33:56;33.00;;;16.40;;
64816;SDS011;69411;45.656;11.740;2024-01-30T13:36:22;33.42;;;19.15;;
64816;SDS011;69411;45.656;11.740;2024-01-30T13:38:48;36.28;;;19.38;;
64816;SDS011;69411;45.656;11.740;2024-01-30T13:41:14;33.53;;;18.27;;
64816;SDS011;69411;45.656;11.740;2024-01-30T13:43:41;32.88;;;17.20;;
64816;SDS011;69411;45.656;11.740;2024-01-30T13:46:08;34.25;;;18.73;;
64816;SDS011;69411;45.656;11.740;2024-01-30T13:48:34;36.35;;;18.35;;
64816;SDS011;69411;45.656;11.740;2024-01-30T13:51:00;42.50;;;22.75;;
64816;SDS011;69411;45.656;11.740;2024-01-30T13:53:26;34.97;;;19.77;;
64816;SDS011;69411;45.656;11.740;2024-01-30T13:55:52;34.03;;;19.00;;
64816;SDS011;69411;45.656;11.740;2024-01-30T13:58:18;39.20;;;21.20;;
64816;SDS011;69411;45.656;11.740;2024-01-30T14:00:44;40.35;;;20.75;;
64816;SDS011;69411;45.656;11.740;2024-01-30T14:03:10;34.85;;;19.42;;
64816;SDS011;69411;45.656;11.740;2024-01-30T14:05:36;37.22;;;20.35;;
64816;SDS011;69411;45.656;11.740;2024-01-30T14:08:02;32.28;;;18.52;;
64816;SDS011;69411;45.656;11.740;2024-01-30T14:10:29;33.90;;;19.52;;
64816;SDS011;69411;45.656;11.740;2024-01-30T14:12:55;35.17;;;19.52;;
64816;SDS011;69411;45.656;11.740;2024-01-30T14:15:21;36.80;;;20.80;;